Terminal Aerodrome Forecast
Issued by NWS

Home | Current Version | Previous Version | Text Only | Print | Product List | Glossary On
Versions: 1 2 3 4 5 6 7 8 9 10 11 12 13 14 15 16 17 18 19 20 21 22 23 24
000
FTUS41 KCTP 181153
TAFAOO
TAF
KAOO 181153Z 1812/1912 19005KT P6SM -RA OVC050
      TEMPO 1812/1815 5SM RA
     FM181500 19005KT 3SM -RA BR OVC015 WS020/23045KT
      TEMPO 1815/1818 2SM RA BR
     FM182200 20009KT 5SM -SHRA BR OVC025 WS020/23045KT
     FM190700 27016G26KT 6SM -SHRA OVC015
     FM190900 29020G32KT P6SM VCSH OVC025=

USA.gov is the U.S. government's official web portal to all federal, state and local government web resources and services.